sensor_id;sensor_type;location;lat;lon;timestamp;P1;durP1;ratioP1;P2;durP2;ratioP2
43710;SDS011;29309;42.682;23.372;2022-08-25T00:01:01;21.48;;;8.38;;
43710;SDS011;29309;42.682;23.372;2022-08-25T00:03:26;19.77;;;7.20;;
43710;SDS011;29309;42.682;23.372;2022-08-25T00:05:52;22.15;;;8.13;;
43710;SDS011;29309;42.682;23.372;2022-08-25T00:08:17;22.88;;;8.02;;
43710;SDS011;29309;42.682;23.372;2022-08-25T00:10:43;25.77;;;7.88;;
43710;SDS011;29309;42.682;23.372;2022-08-25T00:13:08;20.02;;;7.88;;
43710;SDS011;29309;42.682;23.372;2022-08-25T00:15:34;17.92;;;7.20;;
43710;SDS011;29309;42.682;23.372;2022-08-25T00:18:00;23.55;;;7.18;;
43710;SDS011;29309;42.682;23.372;2022-08-25T00:20:27;17.52;;;9.05;;
43710;SDS011;29309;42.682;23.372;2022-08-25T00:22:53;21.55;;;7.50;;
43710;SDS011;29309;42.682;23.372;2022-08-25T00:25:20;18.35;;;7.43;;
43710;SDS011;29309;42.682;23.372;2022-08-25T00:27:46;17.33;;;7.47;;
43710;SDS011;29309;42.682;23.372;2022-08-25T00:30:12;23.45;;;7.40;;
43710;SDS011;29309;42.682;23.372;2022-08-25T00:32:38;17.33;;;7.32;;
43710;SDS011;29309;42.682;23.372;2022-08-25T00:35:04;20.95;;;7.50;;
43710;SDS011;29309;42.682;23.372;2022-08-25T00:37:31;12.77;;;7.40;;
43710;SDS011;29309;42.682;23.372;2022-08-25T00:39:56;23.98;;;7.40;;
43710;SDS011;29309;42.682;23.372;2022-08-25T00:42:23;18.08;;;7.30;;
43710;SDS011;29309;42.682;23.372;2022-08-25T00:44:50;27.77;;;8.25;;
43710;SDS011;29309;42.682;23.372;2022-08-25T00:47:16;21.05;;;7.25;;
43710;SDS011;29309;42.682;23.372;2022-08-25T00:49:43;16.77;;;8.18;;
43710;SDS011;29309;42.682;23.372;2022-08-25T00:52:13;17.02;;;6.80;;
43710;SDS011;29309;42.682;23.372;2022-08-25T00:54:41;19.52;;;7.47;;
43710;SDS011;29309;42.682;23.372;2022-08-25T00:57:24;21.05;;;6.90;;
43710;SDS011;29309;42.682;23.372;2022-08-25T00:59:53;21.42;;;7.57;;
43710;SDS011;29309;42.682;23.372;2022-08-25T01:02:19;19.15;;;7.35;;
43710;SDS011;29309;42.682;23.372;2022-08-25T01:04:45;20.08;;;7.38;;
43710;SDS011;29309;42.682;23.372;2022-08-25T01:07:11;15.90;;;7.38;;
43710;SDS011;29309;42.682;23.372;2022-08-25T01:09:38;16.98;;;7.68;;
43710;SDS011;29309;42.682;23.372;2022-08-25T01:12:04;17.75;;;7.15;;
43710;SDS011;29309;42.682;23.372;2022-08-25T01:14:30;18.67;;;7.35;;
43710;SDS011;29309;42.682;23.372;2022-08-25T01:16:58;17.83;;;7.18;;
43710;SDS011;29309;42.682;23.372;2022-08-25T01:19:24;18.25;;;7.45;;
43710;SDS011;29309;42.682;23.372;2022-08-25T01:21:52;18.20;;;7.47;;
43710;SDS011;29309;42.682;23.372;2022-08-25T01:24:21;22.67;;;6.95;;
43710;SDS011;29309;42.682;23.372;2022-08-25T01:26:47;16.15;;;7.22;;
43710;SDS011;29309;42.682;23.372;2022-08-25T01:29:13;18.73;;;8.18;;
43710;SDS011;29309;42.682;23.372;2022-08-25T01:31:52;22.90;;;7.05;;
43710;SDS011;29309;42.682;23.372;2022-08-25T01:34:21;12.90;;;6.32;;
43710;SDS011;29309;42.682;23.372;2022-08-25T01:36:48;21.05;;;7.68;;
43710;SDS011;29309;42.682;23.372;2022-08-25T01:39:14;15.88;;;7.75;;
43710;SDS011;29309;42.682;23.372;2022-08-25T01:44:24;17.38;;;7.10;;
43710;SDS011;29309;42.682;23.372;2022-08-25T01:46:51;19.27;;;7.90;;
43710;SDS011;29309;42.682;23.372;2022-08-25T01:49:17;19.98;;;7.95;;
43710;SDS011;29309;42.682;23.372;2022-08-25T01:51:51;15.43;;;7.13;;
43710;SDS011;29309;42.682;23.372;2022-08-25T01:54:20;16.00;;;8.00;;
43710;SDS011;29309;42.682;23.372;2022-08-25T01:56:46;18.33;;;7.65;;
43710;SDS011;29309;42.682;23.372;2022-08-25T01:59:13;24.13;;;8.57;;
43710;SDS011;29309;42.682;23.372;2022-08-25T02:01:41;21.70;;;8.02;;
43710;SDS011;29309;42.682;23.372;2022-08-25T02:04:06;28.92;;;7.88;;
43710;SDS011;29309;42.682;23.372;2022-08-25T02:06:32;21.55;;;8.02;;
43710;SDS011;29309;42.682;23.372;2022-08-25T02:09:00;23.60;;;8.80;;
43710;SDS011;29309;42.682;23.372;2022-08-25T02:11:29;21.65;;;7.63;;
43710;SDS011;29309;42.682;23.372;2022-08-25T02:13:56;15.60;;;7.82;;
43710;SDS011;29309;42.682;23.372;2022-08-25T02:16:24;21.15;;;7.28;;
43710;SDS011;29309;42.682;23.372;2022-08-25T02:18:52;18.02;;;7.40;;
43710;SDS011;29309;42.682;23.372;2022-08-25T02:21:19;29.33;;;7.82;;
43710;SDS011;29309;42.682;23.372;2022-08-25T02:23:44;24.73;;;7.25;;
43710;SDS011;29309;42.682;23.372;2022-08-25T02:26:10;14.05;;;7.03;;
43710;SDS011;29309;42.682;23.372;2022-08-25T02:28:36;16.05;;;7.07;;
43710;SDS011;29309;42.682;23.372;2022-08-25T02:31:03;17.38;;;6.53;;
43710;SDS011;29309;42.682;23.372;2022-08-25T02:33:29;14.45;;;6.20;;
43710;SDS011;29309;42.682;23.372;2022-08-25T02:35:56;15.10;;;6.40;;
43710;SDS011;29309;42.682;23.372;2022-08-25T02:38:23;14.65;;;5.90;;
43710;SDS011;29309;42.682;23.372;2022-08-25T02:40:49;15.13;;;6.80;;
43710;SDS011;29309;42.682;23.372;2022-08-25T02:43:15;19.48;;;6.90;;
43710;SDS011;29309;42.682;23.372;2022-08-25T02:45:41;15.63;;;6.05;;
43710;SDS011;29309;42.682;23.372;2022-08-25T02:48:06;17.70;;;8.73;;
43710;SDS011;29309;42.682;23.372;2022-08-25T02:50:31;19.77;;;7.07;;
43710;SDS011;29309;42.682;23.372;2022-08-25T02:52:57;15.63;;;6.88;;
43710;SDS011;29309;42.682;23.372;2022-08-25T02:55:22;18.08;;;6.55;;
43710;SDS011;29309;42.682;23.372;2022-08-25T02:57:48;14.70;;;6.63;;
43710;SDS011;29309;42.682;23.372;2022-08-25T03:00:14;20.50;;;6.88;;
43710;SDS011;29309;42.682;23.372;2022-08-25T03:02:41;15.68;;;6.47;;
43710;SDS011;29309;42.682;23.372;2022-08-25T03:05:07;16.38;;;7.60;;
43710;SDS011;29309;42.682;23.372;2022-08-25T03:07:34;23.20;;;7.10;;
43710;SDS011;29309;42.682;23.372;2022-08-25T03:10:07;13.85;;;6.47;;
43710;SDS011;29309;42.682;23.372;2022-08-25T03:12:36;21.98;;;6.85;;
43710;SDS011;29309;42.682;23.372;2022-08-25T03:15:01;20.33;;;7.88;;
43710;SDS011;29309;42.682;23.372;2022-08-25T03:17:27;14.80;;;5.75;;
43710;SDS011;29309;42.682;23.372;2022-08-25T03:19:53;11.40;;;6.38;;
43710;SDS011;29309;42.682;23.372;2022-08-25T03:22:19;12.23;;;6.20;;
43710;SDS011;29309;42.682;23.372;2022-08-25T03:24:45;21.45;;;6.97;;
43710;SDS011;29309;42.682;23.372;2022-08-25T03:27:10;18.10;;;7.45;;
43710;SDS011;29309;42.682;23.372;2022-08-25T03:29:37;14.55;;;6.38;;
43710;SDS011;29309;42.682;23.372;2022-08-25T03:32:03;22.33;;;6.35;;
43710;SDS011;29309;42.682;23.372;2022-08-25T03:34:30;20.52;;;6.95;;
43710;SDS011;29309;42.682;23.372;2022-08-25T03:36:56;17.02;;;6.60;;
43710;SDS011;29309;42.682;23.372;2022-08-25T03:39:22;16.92;;;6.05;;
43710;SDS011;29309;42.682;23.372;2022-08-25T03:41:50;18.02;;;6.88;;
43710;SDS011;29309;42.682;23.372;2022-08-25T03:44:16;20.90;;;7.85;;
43710;SDS011;29309;42.682;23.372;2022-08-25T03:46:44;17.13;;;6.40;;
43710;SDS011;29309;42.682;23.372;2022-08-25T03:49:15;13.70;;;6.05;;
43710;SDS011;29309;42.682;23.372;2022-08-25T03:51:44;15.35;;;5.82;;
43710;SDS011;29309;42.682;23.372;2022-08-25T03:54:11;18.25;;;7.00;;
43710;SDS011;29309;42.682;23.372;2022-08-25T03:56:39;18.13;;;6.22;;
43710;SDS011;29309;42.682;23.372;2022-08-25T03:59:05;11.63;;;6.03;;
43710;SDS011;29309;42.682;23.372;2022-08-25T04:01:33;16.50;;;6.43;;
43710;SDS011;29309;42.682;23.372;2022-08-25T04:04:00;20.63;;;7.75;;
43710;SDS011;29309;42.682;23.372;2022-08-25T04:06:26;24.85;;;7.68;;
43710;SDS011;29309;42.682;23.372;2022-08-25T04:08:51;20.15;;;7.15;;
43710;SDS011;29309;42.682;23.372;2022-08-25T04:11:18;20.85;;;7.32;;
43710;SDS011;29309;42.682;23.372;2022-08-25T04:14:04;15.48;;;6.63;;
43710;SDS011;29309;42.682;23.372;2022-08-25T04:16:31;19.50;;;5.93;;
43710;SDS011;29309;42.682;23.372;2022-08-25T04:18:58;11.98;;;6.80;;
43710;SDS011;29309;42.682;23.372;2022-08-25T04:21:26;24.13;;;8.73;;
43710;SDS011;29309;42.682;23.372;2022-08-25T04:23:53;20.48;;;8.57;;
43710;SDS011;29309;42.682;23.372;2022-08-25T04:26:24;33.55;;;11.73;;
43710;SDS011;29309;42.682;23.372;2022-08-25T04:28:52;21.15;;;11.18;;
43710;SDS011;29309;42.682;23.372;2022-08-25T04:31:18;24.70;;;11.23;;
43710;SDS011;29309;42.682;23.372;2022-08-25T04:33:45;22.67;;;10.82;;
43710;SDS011;29309;42.682;23.372;2022-08-25T04:36:12;24.63;;;11.93;;
43710;SDS011;29309;42.682;23.372;2022-08-25T04:38:39;26.33;;;10.80;;
43710;SDS011;29309;42.682;23.372;2022-08-25T04:41:06;25.77;;;9.88;;
43710;SDS011;29309;42.682;23.372;2022-08-25T04:43:33;22.67;;;9.82;;
43710;SDS011;29309;42.682;23.372;2022-08-25T04:46:04;18.42;;;9.40;;
43710;SDS011;29309;42.682;23.372;2022-08-25T04:48:32;20.05;;;9.27;;
43710;SDS011;29309;42.682;23.372;2022-08-25T04:51:03;17.73;;;7.85;;
43710;SDS011;29309;42.682;23.372;2022-08-25T04:53:31;16.30;;;7.88;;
43710;SDS011;29309;42.682;23.372;2022-08-25T04:55:57;14.45;;;7.75;;
43710;SDS011;29309;42.682;23.372;2022-08-25T04:58:22;21.48;;;8.85;;
43710;SDS011;29309;42.682;23.372;2022-08-25T05:00:48;22.10;;;8.15;;
43710;SDS011;29309;42.682;23.372;2022-08-25T05:03:13;18.55;;;7.68;;
43710;SDS011;29309;42.682;23.372;2022-08-25T05:05:39;22.33;;;7.93;;
43710;SDS011;29309;42.682;23.372;2022-08-25T05:08:04;13.38;;;7.28;;
43710;SDS011;29309;42.682;23.372;2022-08-25T05:10:31;17.67;;;6.50;;
43710;SDS011;29309;42.682;23.372;2022-08-25T05:12:57;15.07;;;7.32;;
43710;SDS011;29309;42.682;23.372;2022-08-25T05:15:24;20.13;;;7.30;;
43710;SDS011;29309;42.682;23.372;2022-08-25T05:18:09;19.67;;;7.93;;
43710;SDS011;29309;42.682;23.372;2022-08-25T05:20:35;20.40;;;7.70;;
43710;SDS011;29309;42.682;23.372;2022-08-25T05:23:02;18.83;;;6.97;;
43710;SDS011;29309;42.682;23.372;2022-08-25T05:25:28;22.30;;;8.85;;
43710;SDS011;29309;42.682;23.372;2022-08-25T05:27:53;28.95;;;7.65;;
43710;SDS011;29309;42.682;23.372;2022-08-25T05:30:19;25.98;;;7.78;;
43710;SDS011;29309;42.682;23.372;2022-08-25T05:32:44;24.38;;;6.85;;
43710;SDS011;29309;42.682;23.372;2022-08-25T05:35:10;15.50;;;6.70;;
43710;SDS011;29309;42.682;23.372;2022-08-25T05:37:36;17.70;;;7.00;;
43710;SDS011;29309;42.682;23.372;2022-08-25T05:40:02;15.70;;;7.43;;
43710;SDS011;29309;42.682;23.372;2022-08-25T05:42:32;17.90;;;7.45;;
43710;SDS011;29309;42.682;23.372;2022-08-25T05:44:58;22.52;;;6.75;;
43710;SDS011;29309;42.682;23.372;2022-08-25T05:47:23;18.67;;;7.03;;
43710;SDS011;29309;42.682;23.372;2022-08-25T05:49:49;13.30;;;6.55;;
43710;SDS011;29309;42.682;23.372;2022-08-25T05:52:14;18.25;;;7.63;;
43710;SDS011;29309;42.682;23.372;2022-08-25T05:54:40;18.73;;;7.85;;
43710;SDS011;29309;42.682;23.372;2022-08-25T05:57:07;17.50;;;7.05;;
43710;SDS011;29309;42.682;23.372;2022-08-25T06:16:28;18.55;;;6.80;;
43710;SDS011;29309;42.682;23.372;2022-08-25T06:18:54;12.63;;;6.25;;
43710;SDS011;29309;42.682;23.372;2022-08-25T06:21:19;16.50;;;6.38;;
43710;SDS011;29309;42.682;23.372;2022-08-25T06:23:45;18.02;;;6.95;;
43710;SDS011;29309;42.682;23.372;2022-08-25T06:31:21;12.75;;;5.80;;
43710;SDS011;29309;42.682;23.372;2022-08-25T06:33:47;16.88;;;6.32;;
43710;SDS011;29309;42.682;23.372;2022-08-25T06:36:13;13.27;;;6.35;;
43710;SDS011;29309;42.682;23.372;2022-08-25T06:43:53;13.32;;;6.13;;
43710;SDS011;29309;42.682;23.372;2022-08-25T06:46:22;16.25;;;6.85;;
43710;SDS011;29309;42.682;23.372;2022-08-25T06:48:51;23.20;;;8.25;;
43710;SDS011;29309;42.682;23.372;2022-08-25T06:51:18;15.40;;;6.15;;
43710;SDS011;29309;42.682;23.372;2022-08-25T06:53:45;19.67;;;7.45;;
43710;SDS011;29309;42.682;23.372;2022-08-25T06:56:16;16.58;;;7.18;;
43710;SDS011;29309;42.682;23.372;2022-08-25T06:58:45;18.55;;;6.75;;
43710;SDS011;29309;42.682;23.372;2022-08-25T07:03:47;16.58;;;6.18;;
43710;SDS011;29309;42.682;23.372;2022-08-25T07:06:14;13.50;;;6.63;;
43710;SDS011;29309;42.682;23.372;2022-08-25T07:08:46;15.43;;;8.20;;
43710;SDS011;29309;42.682;23.372;2022-08-25T07:11:12;15.77;;;6.85;;
43710;SDS011;29309;42.682;23.372;2022-08-25T07:13:42;17.55;;;5.95;;
43710;SDS011;29309;42.682;23.372;2022-08-25T07:18:43;17.05;;;7.07;;
43710;SDS011;29309;42.682;23.372;2022-08-25T07:23:38;17.25;;;6.80;;
43710;SDS011;29309;42.682;23.372;2022-08-25T07:28:35;30.02;;;7.18;;
43710;SDS011;29309;42.682;23.372;2022-08-25T07:31:04;18.20;;;6.47;;
43710;SDS011;29309;42.682;23.372;2022-08-25T07:33:30;17.77;;;6.13;;
43710;SDS011;29309;42.682;23.372;2022-08-25T07:35:55;15.13;;;7.13;;
43710;SDS011;29309;42.682;23.372;2022-08-25T07:38:21;19.90;;;6.40;;
43710;SDS011;29309;42.682;23.372;2022-08-25T07:40:48;18.75;;;5.68;;
43710;SDS011;29309;42.682;23.372;2022-08-25T07:43:19;17.63;;;6.30;;
43710;SDS011;29309;42.682;23.372;2022-08-25T07:45:46;14.23;;;6.78;;
43710;SDS011;29309;42.682;23.372;2022-08-25T07:48:13;10.75;;;6.10;;
43710;SDS011;29309;42.682;23.372;2022-08-25T07:50:40;17.63;;;6.40;;
43710;SDS011;29309;42.682;23.372;2022-08-25T07:53:08;19.77;;;6.53;;
43710;SDS011;29309;42.682;23.372;2022-08-25T07:55:34;11.23;;;6.28;;
43710;SDS011;29309;42.682;23.372;2022-08-25T07:58:01;16.75;;;6.35;;
43710;SDS011;29309;42.682;23.372;2022-08-25T08:00:27;18.25;;;6.35;;
43710;SDS011;29309;42.682;23.372;2022-08-25T08:02:57;20.00;;;5.85;;
43710;SDS011;29309;42.682;23.372;2022-08-25T08:05:27;20.45;;;6.97;;
43710;SDS011;29309;42.682;23.372;2022-08-25T08:07:53;16.10;;;7.00;;
43710;SDS011;29309;42.682;23.372;2022-08-25T08:10:20;21.85;;;6.22;;
43710;SDS011;29309;42.682;23.372;2022-08-25T08:12:46;25.02;;;8.40;;
43710;SDS011;29309;42.682;23.372;2022-08-25T08:15:11;12.80;;;5.13;;
43710;SDS011;29309;42.682;23.372;2022-08-25T08:17:38;23.92;;;6.15;;
43710;SDS011;29309;42.682;23.372;2022-08-25T08:20:04;25.02;;;6.28;;
43710;SDS011;29309;42.682;23.372;2022-08-25T08:22:33;20.75;;;6.57;;
43710;SDS011;29309;42.682;23.372;2022-08-25T08:25:00;16.20;;;5.68;;
43710;SDS011;29309;42.682;23.372;2022-08-25T08:27:26;12.65;;;5.50;;
43710;SDS011;29309;42.682;23.372;2022-08-25T08:29:52;21.13;;;6.70;;
43710;SDS011;29309;42.682;23.372;2022-08-25T08:32:17;22.67;;;5.93;;
43710;SDS011;29309;42.682;23.372;2022-08-25T08:34:44;21.95;;;5.25;;
43710;SDS011;29309;42.682;23.372;2022-08-25T08:37:11;17.48;;;4.07;;
43710;SDS011;29309;42.682;23.372;2022-08-25T08:39:36;21.77;;;5.07;;
43710;SDS011;29309;42.682;23.372;2022-08-25T08:51:00;23.77;;;6.40;;
43710;SDS011;29309;42.682;23.372;2022-08-25T08:53:44;16.95;;;5.00;;
43710;SDS011;29309;42.682;23.372;2022-08-25T08:56:37;24.25;;;4.75;;
43710;SDS011;29309;42.682;23.372;2022-08-25T08:59:08;20.38;;;4.72;;
43710;SDS011;29309;42.682;23.372;2022-08-25T09:01:43;22.83;;;5.18;;
43710;SDS011;29309;42.682;23.372;2022-08-25T09:04:13;31.55;;;6.80;;
43710;SDS011;29309;42.682;23.372;2022-08-25T09:07:03;19.67;;;4.85;;
43710;SDS011;29309;42.682;23.372;2022-08-25T09:09:35;33.22;;;6.40;;
43710;SDS011;29309;42.682;23.372;2022-08-25T09:12:25;24.42;;;4.90;;
43710;SDS011;29309;42.682;23.372;2022-08-25T09:19:27;19.92;;;5.18;;
43710;SDS011;29309;42.682;23.372;2022-08-25T09:26:34;21.90;;;5.40;;
43710;SDS011;29309;42.682;23.372;2022-08-25T09:29:13;22.13;;;4.97;;
43710;SDS011;29309;42.682;23.372;2022-08-25T09:31:45;21.23;;;4.13;;
43710;SDS011;29309;42.682;23.372;2022-08-25T09:34:22;15.70;;;3.83;;
43710;SDS011;29309;42.682;23.372;2022-08-25T09:36:52;25.02;;;4.85;;
43710;SDS011;29309;42.682;23.372;2022-08-25T09:39:18;28.23;;;5.13;;
43710;SDS011;29309;42.682;23.372;2022-08-25T09:41:46;20.05;;;3.67;;
43710;SDS011;29309;42.682;23.372;2022-08-25T09:46:57;17.92;;;3.55;;
43710;SDS011;29309;42.682;23.372;2022-08-25T09:49:30;22.27;;;4.15;;
43710;SDS011;29309;42.682;23.372;2022-08-25T09:57:32;21.77;;;4.97;;
43710;SDS011;29309;42.682;23.372;2022-08-25T10:00:19;24.17;;;4.07;;
43710;SDS011;29309;42.682;23.372;2022-08-25T10:05:31;33.67;;;5.03;;
43710;SDS011;29309;42.682;23.372;2022-08-25T10:08:03;24.67;;;4.40;;
43710;SDS011;29309;42.682;23.372;2022-08-25T10:10:52;24.08;;;4.40;;
43710;SDS011;29309;42.682;23.372;2022-08-25T10:13:30;13.10;;;2.85;;
43710;SDS011;29309;42.682;23.372;2022-08-25T10:16:02;24.13;;;3.25;;
43710;SDS011;29309;42.682;23.372;2022-08-25T10:18:30;17.38;;;3.47;;
43710;SDS011;29309;42.682;23.372;2022-08-25T10:23:48;15.40;;;3.10;;
43710;SDS011;29309;42.682;23.372;2022-08-25T10:31:56;22.83;;;3.92;;
43710;SDS011;29309;42.682;23.372;2022-08-25T10:34:35;24.38;;;3.80;;
43710;SDS011;29309;42.682;23.372;2022-08-25T10:39:42;14.77;;;2.95;;
43710;SDS011;29309;42.682;23.372;2022-08-25T10:42:19;16.92;;;3.50;;
43710;SDS011;29309;42.682;23.372;2022-08-25T10:55:59;19.77;;;2.80;;
43710;SDS011;29309;42.682;23.372;2022-08-25T10:58:57;19.40;;;3.55;;
43710;SDS011;29309;42.682;23.372;2022-08-25T11:04:22;15.95;;;3.42;;
43710;SDS011;29309;42.682;23.372;2022-08-25T11:09:44;21.80;;;3.67;;
43710;SDS011;29309;42.682;23.372;2022-08-25T11:14:56;18.77;;;3.25;;
43710;SDS011;29309;42.682;23.372;2022-08-25T11:17:25;31.75;;;3.67;;
43710;SDS011;29309;42.682;23.372;2022-08-25T11:20:03;26.92;;;3.70;;
43710;SDS011;29309;42.682;23.372;2022-08-25T11:22:38;22.13;;;4.32;;
43710;SDS011;29309;42.682;23.372;2022-08-25T11:25:25;19.77;;;4.63;;
43710;SDS011;29309;42.682;23.372;2022-08-25T11:30:34;17.23;;;3.07;;
43710;SDS011;29309;42.682;23.372;2022-08-25T11:33:01;15.77;;;3.55;;
43710;SDS011;29309;42.682;23.372;2022-08-25T11:35:36;16.27;;;3.67;;
43710;SDS011;29309;42.682;23.372;2022-08-25T11:54:57;20.23;;;3.50;;
43710;SDS011;29309;42.682;23.372;2022-08-25T12:00:58;13.48;;;2.38;;
43710;SDS011;29309;42.682;23.372;2022-08-25T12:38:49;8.38;;;2.60;;
43710;SDS011;29309;42.682;23.372;2022-08-25T12:41:18;20.58;;;2.80;;
43710;SDS011;29309;42.682;23.372;2022-08-25T12:43:46;9.38;;;2.47;;
43710;SDS011;29309;42.682;23.372;2022-08-25T12:57:56;9.93;;;2.50;;
43710;SDS011;29309;42.682;23.372;2022-08-25T13:08:40;21.75;;;3.60;;
43710;SDS011;29309;42.682;23.372;2022-08-25T13:11:22;14.50;;;4.13;;
43710;SDS011;29309;42.682;23.372;2022-08-25T13:17:04;15.07;;;3.03;;
43710;SDS011;29309;42.682;23.372;2022-08-25T13:19:29;19.52;;;3.40;;
43710;SDS011;29309;42.682;23.372;2022-08-25T13:21:56;14.38;;;3.08;;
43710;SDS011;29309;42.682;23.372;2022-08-25T13:24:34;15.52;;;2.83;;
43710;SDS011;29309;42.682;23.372;2022-08-25T13:27:06;24.45;;;3.20;;
43710;SDS011;29309;42.682;23.372;2022-08-25T13:29:34;11.10;;;2.72;;
43710;SDS011;29309;42.682;23.372;2022-08-25T13:32:24;19.13;;;3.63;;
43710;SDS011;29309;42.682;23.372;2022-08-25T13:34:54;16.92;;;3.20;;
43710;SDS011;29309;42.682;23.372;2022-08-25T13:37:42;22.92;;;4.28;;
43710;SDS011;29309;42.682;23.372;2022-08-25T13:42:49;16.67;;;3.63;;
43710;SDS011;29309;42.682;23.372;2022-08-25T13:45:20;18.60;;;3.55;;
43710;SDS011;29309;42.682;23.372;2022-08-25T13:47:48;12.23;;;3.00;;
43710;SDS011;29309;42.682;23.372;2022-08-25T13:50:29;12.57;;;3.72;;
43710;SDS011;29309;42.682;23.372;2022-08-25T13:55:57;20.20;;;4.05;;
43710;SDS011;29309;42.682;23.372;2022-08-25T13:58:29;20.63;;;3.80;;
43710;SDS011;29309;42.682;23.372;2022-08-25T14:03:41;45.80;;;4.50;;
43710;SDS011;29309;42.682;23.372;2022-08-25T14:06:09;15.68;;;2.42;;
43710;SDS011;29309;42.682;23.372;2022-08-25T14:08:39;18.10;;;3.00;;
43710;SDS011;29309;42.682;23.372;2022-08-25T14:11:10;16.33;;;3.30;;
43710;SDS011;29309;42.682;23.372;2022-08-25T14:14:06;15.23;;;3.28;;
43710;SDS011;29309;42.682;23.372;2022-08-25T14:19:15;9.20;;;3.42;;
43710;SDS011;29309;42.682;23.372;2022-08-25T14:21:48;17.08;;;3.10;;
43710;SDS011;29309;42.682;23.372;2022-08-25T14:24:17;13.25;;;3.10;;
43710;SDS011;29309;42.682;23.372;2022-08-25T14:29:30;15.02;;;3.90;;
43710;SDS011;29309;42.682;23.372;2022-08-25T14:31:56;22.42;;;3.15;;
43710;SDS011;29309;42.682;23.372;2022-08-25T14:34:27;16.13;;;3.10;;
43710;SDS011;29309;42.682;23.372;2022-08-25T14:37:00;18.13;;;3.63;;
43710;SDS011;29309;42.682;23.372;2022-08-25T14:39:30;12.40;;;2.40;;
43710;SDS011;29309;42.682;23.372;2022-08-25T14:41:59;18.13;;;3.20;;
43710;SDS011;29309;42.682;23.372;2022-08-25T14:44:24;20.60;;;3.25;;
43710;SDS011;29309;42.682;23.372;2022-08-25T14:46:51;7.32;;;3.15;;
43710;SDS011;29309;42.682;23.372;2022-08-25T14:49:23;20.20;;;3.33;;
43710;SDS011;29309;42.682;23.372;2022-08-25T14:51:54;19.77;;;3.35;;
43710;SDS011;29309;42.682;23.372;2022-08-25T14:54:39;20.10;;;3.80;;
43710;SDS011;29309;42.682;23.372;2022-08-25T14:57:11;19.55;;;3.80;;
43710;SDS011;29309;42.682;23.372;2022-08-25T14:59:40;21.92;;;2.70;;
43710;SDS011;29309;42.682;23.372;2022-08-25T15:02:05;19.88;;;3.30;;
43710;SDS011;29309;42.682;23.372;2022-08-25T15:04:34;19.65;;;2.45;;
43710;SDS011;29309;42.682;23.372;2022-08-25T15:07:01;15.77;;;3.28;;
43710;SDS011;29309;42.682;23.372;2022-08-25T15:09:47;11.90;;;3.97;;
43710;SDS011;29309;42.682;23.372;2022-08-25T15:12:12;16.63;;;3.13;;
43710;SDS011;29309;42.682;23.372;2022-08-25T15:14:38;20.15;;;3.60;;
43710;SDS011;29309;42.682;23.372;2022-08-25T15:17:04;13.02;;;3.75;;
43710;SDS011;29309;42.682;23.372;2022-08-25T15:19:32;16.92;;;3.63;;
43710;SDS011;29309;42.682;23.372;2022-08-25T15:21:58;14.23;;;3.10;;
43710;SDS011;29309;42.682;23.372;2022-08-25T15:24:24;21.08;;;3.83;;
43710;SDS011;29309;42.682;23.372;2022-08-25T15:26:56;20.85;;;2.88;;
43710;SDS011;29309;42.682;23.372;2022-08-25T15:29:24;24.27;;;4.07;;
43710;SDS011;29309;42.682;23.372;2022-08-25T15:31:53;20.20;;;3.45;;
43710;SDS011;29309;42.682;23.372;2022-08-25T15:34:18;17.98;;;3.80;;
43710;SDS011;29309;42.682;23.372;2022-08-25T15:36:44;18.98;;;3.08;;
43710;SDS011;29309;42.682;23.372;2022-08-25T15:39:10;18.00;;;3.38;;
43710;SDS011;29309;42.682;23.372;2022-08-25T15:41:36;15.75;;;3.42;;
43710;SDS011;29309;42.682;23.372;2022-08-25T15:44:03;25.42;;;3.20;;
43710;SDS011;29309;42.682;23.372;2022-08-25T15:46:30;21.02;;;3.45;;
43710;SDS011;29309;42.682;23.372;2022-08-25T15:48:57;24.00;;;3.63;;
43710;SDS011;29309;42.682;23.372;2022-08-25T15:51:23;24.90;;;3.92;;
43710;SDS011;29309;42.682;23.372;2022-08-25T15:53:49;17.75;;;4.38;;
43710;SDS011;29309;42.682;23.372;2022-08-25T15:56:16;18.10;;;4.30;;
43710;SDS011;29309;42.682;23.372;2022-08-25T15:58:43;25.42;;;3.80;;
43710;SDS011;29309;42.682;23.372;2022-08-25T16:01:11;25.77;;;4.45;;
43710;SDS011;29309;42.682;23.372;2022-08-25T16:03:41;17.08;;;4.15;;
43710;SDS011;29309;42.682;23.372;2022-08-25T16:06:06;18.30;;;4.18;;
43710;SDS011;29309;42.682;23.372;2022-08-25T16:08:32;26.38;;;5.60;;
43710;SDS011;29309;42.682;23.372;2022-08-25T16:11:02;14.90;;;6.30;;
43710;SDS011;29309;42.682;23.372;2022-08-25T16:13:28;23.33;;;5.60;;
43710;SDS011;29309;42.682;23.372;2022-08-25T16:15:53;26.40;;;3.88;;
43710;SDS011;29309;42.682;23.372;2022-08-25T16:18:19;23.35;;;4.50;;
43710;SDS011;29309;42.682;23.372;2022-08-25T16:20:46;9.73;;;3.70;;
43710;SDS011;29309;42.682;23.372;2022-08-25T16:23:12;26.83;;;5.43;;
43710;SDS011;29309;42.682;23.372;2022-08-25T16:25:40;22.17;;;4.20;;
43710;SDS011;29309;42.682;23.372;2022-08-25T16:28:08;19.98;;;4.32;;
43710;SDS011;29309;42.682;23.372;2022-08-25T16:30:34;17.67;;;4.35;;
43710;SDS011;29309;42.682;23.372;2022-08-25T16:33:00;14.30;;;3.85;;
43710;SDS011;29309;42.682;23.372;2022-08-25T16:35:25;19.58;;;4.55;;
43710;SDS011;29309;42.682;23.372;2022-08-25T16:37:52;13.00;;;4.25;;
43710;SDS011;29309;42.682;23.372;2022-08-25T16:40:19;22.85;;;5.43;;
43710;SDS011;29309;42.682;23.372;2022-08-25T16:42:47;15.65;;;4.05;;
43710;SDS011;29309;42.682;23.372;2022-08-25T16:45:12;15.98;;;4.63;;
43710;SDS011;29309;42.682;23.372;2022-08-25T16:47:38;31.65;;;7.32;;
43710;SDS011;29309;42.682;23.372;2022-08-25T16:50:05;32.85;;;6.30;;
43710;SDS011;29309;42.682;23.372;2022-08-25T16:52:33;14.45;;;4.45;;
43710;SDS011;29309;42.682;23.372;2022-08-25T16:55:17;14.35;;;4.55;;
43710;SDS011;29309;42.682;23.372;2022-08-25T16:57:44;22.58;;;8.88;;
43710;SDS011;29309;42.682;23.372;2022-08-25T17:00:13;18.75;;;6.25;;
43710;SDS011;29309;42.682;23.372;2022-08-25T17:02:43;29.38;;;5.13;;
43710;SDS011;29309;42.682;23.372;2022-08-25T17:05:09;27.67;;;4.72;;
43710;SDS011;29309;42.682;23.372;2022-08-25T17:07:35;26.13;;;4.88;;
43710;SDS011;29309;42.682;23.372;2022-08-25T17:10:02;22.60;;;4.30;;
43710;SDS011;29309;42.682;23.372;2022-08-25T17:12:29;14.25;;;3.85;;
43710;SDS011;29309;42.682;23.372;2022-08-25T17:14:55;23.48;;;4.90;;
43710;SDS011;29309;42.682;23.372;2022-08-25T17:17:20;15.38;;;4.50;;
43710;SDS011;29309;42.682;23.372;2022-08-25T17:19:45;24.88;;;4.53;;
43710;SDS011;29309;42.682;23.372;2022-08-25T17:22:11;19.48;;;5.15;;
43710;SDS011;29309;42.682;23.372;2022-08-25T17:24:40;25.20;;;4.60;;
43710;SDS011;29309;42.682;23.372;2022-08-25T17:27:06;28.55;;;6.43;;
43710;SDS011;29309;42.682;23.372;2022-08-25T17:29:32;22.88;;;5.68;;
43710;SDS011;29309;42.682;23.372;2022-08-25T17:31:58;20.92;;;4.22;;
43710;SDS011;29309;42.682;23.372;2022-08-25T17:34:24;25.77;;;4.60;;
43710;SDS011;29309;42.682;23.372;2022-08-25T17:36:50;21.63;;;4.88;;
43710;SDS011;29309;42.682;23.372;2022-08-25T17:39:17;27.52;;;6.50;;
43710;SDS011;29309;42.682;23.372;2022-08-25T17:41:43;21.75;;;7.07;;
43710;SDS011;29309;42.682;23.372;2022-08-25T17:44:10;23.45;;;5.60;;